Time;durP1;ratioP1;P1;durP2;ratioP2;P2;SDS_P1;SDS_P2;PMS_P1;PMS_P2;Temp;Humidity;BMP_temperature;BMP_pressure;BME280_temperature;BME280_humidity;BME280_pressure;Samples;Min_cycle;Max_cycle;Signal;HPM_P1;HPM_P2
2024/01/04 00:00:04;;;;;;;5.60;1.33;;;;;9.60;96796.00;;;;5074694;28;20394;-63
2024/01/04 00:02:31;;;;;;;6.10;1.60;;;;;9.60;96809.00;;;;5073802;28;20122;-62
2024/01/04 00:04:58;;;;;;;5.32;1.42;;;;;9.60;96799.00;;;;5074244;28;20075;-63
2024/01/04 00:07:25;;;;;;;3.13;1.10;;;;;9.50;96800.00;;;;5056890;28;20049;-65
2024/01/04 00:09:51;;;;;;;4.40;1.50;;;;;9.50;96804.00;;;;5074564;28;20119;-63
2024/01/04 00:12:18;;;;;;;5.40;1.65;;;;;9.50;96799.00;;;;5074592;28;20048;-63
2024/01/04 00:14:45;;;;;;;4.40;1.10;;;;;9.50;96802.00;;;;5074046;28;20181;-63
2024/01/04 00:17:11;;;;;;;5.93;1.95;;;;;9.50;96803.00;;;;5074436;28;20051;-64
2024/01/04 00:19:38;;;;;;;7.60;1.35;;;;;9.50;96802.00;;;;5074437;28;20076;-63
2024/01/04 00:22:05;;;;;;;3.85;1.45;;;;;9.50;96793.00;;;;5074415;28;20482;-63
2024/01/04 00:24:32;;;;;;;6.93;1.30;;;;;9.50;96806.00;;;;5072395;28;20098;-64
2024/01/04 00:26:58;;;;;;;5.45;1.52;;;;;9.50;96792.00;;;;5072330;28;20064;-62
2024/01/04 00:29:25;;;;;;;4.85;1.30;;;;;9.50;96800.00;;;;5073400;28;20049;-62
2024/01/04 00:31:53;;;;;;;3.20;1.13;;;;;9.40;96806.00;;;;5074587;28;20037;-62
2024/01/04 00:34:20;;;;;;;7.15;1.77;;;;;9.40;96796.00;;;;5073840;28;20490;-63
2024/01/04 00:36:47;;;;;;;3.05;1.25;;;;;9.40;96798.00;;;;5073375;28;20076;-61
2024/01/04 00:39:13;;;;;;;2.97;1.10;;;;;9.50;96811.00;;;;5074066;28;20064;-62
2024/01/04 00:41:40;;;;;;;4.00;1.48;;;;;9.50;96811.00;;;;5072863;28;20441;-64
2024/01/04 00:44:08;;;;;;;6.35;1.42;;;;;9.50;96808.00;;;;5072236;28;20048;-64
2024/01/04 00:46:35;;;;;;;3.55;1.58;;;;;9.40;96813.00;;;;5072735;28;20098;-63
2024/01/04 00:49:01;;;;;;;3.92;1.10;;;;;9.40;96820.00;;;;5073902;28;20036;-62
2024/01/04 00:51:28;;;;;;;3.45;1.25;;;;;9.40;96824.00;;;;5072731;28;20056;-61
2024/01/04 00:53:55;;;;;;;3.92;1.33;;;;;9.40;96823.00;;;;5072094;28;20128;-62
2024/01/04 00:56:21;;;;;;;3.75;1.30;;;;;9.40;96823.00;;;;5073723;28;20052;-61
2024/01/04 00:58:48;;;;;;;5.68;1.50;;;;;9.40;96826.00;;;;5073653;28;20060;-62
2024/01/04 01:01:14;;;;;;;2.92;1.05;;;;;9.50;96828.00;;;;5055743;28;20044;-62
2024/01/04 01:03:41;;;;;;;5.00;1.20;;;;;9.50;96838.00;;;;5071773;28;20052;-63
2024/01/04 01:06:11;;;;;;;4.30;1.63;;;;;9.50;96825.00;;;;5072425;28;20054;-62
2024/01/04 01:08:38;;;;;;;2.67;1.27;;;;;9.50;96834.00;;;;5072219;28;20044;-62
2024/01/04 01:11:08;;;;;;;6.80;1.40;;;;;9.50;96832.00;;;;5073624;28;20039;-61
2024/01/04 01:13:35;;;;;;;8.35;1.55;;;;;9.50;96838.00;;;;5071633;28;20040;-64
2024/01/04 01:16:02;;;;;;;4.55;1.20;;;;;9.40;96857.00;;;;5072078;28;20158;-63
2024/01/04 01:18:29;;;;;;;6.57;1.23;;;;;9.40;96863.00;;;;5071906;28;20098;-62
2024/01/04 01:20:58;;;;;;;3.80;1.30;;;;;9.40;96848.00;;;;5071869;28;20101;-62
2024/01/04 01:23:24;;;;;;;6.35;1.52;;;;;9.50;96849.00;;;;5071409;28;20044;-63
2024/01/04 01:25:51;;;;;;;5.60;1.33;;;;;9.40;96867.00;;;;5073034;28;20044;-62
2024/01/04 01:28:17;;;;;;;4.93;1.38;;;;;9.40;96859.00;;;;5072050;28;20056;-64
2024/01/04 01:30:44;;;;;;;3.95;1.10;;;;;9.40;96875.00;;;;5071839;28;20135;-62
2024/01/04 01:33:10;;;;;;;8.30;1.40;;;;;9.40;96888.00;;;;5071895;28;20076;-62
2024/01/04 01:35:37;;;;;;;4.07;0.85;;;;;9.40;96876.00;;;;5071124;28;20140;-62
2024/01/04 01:38:04;;;;;;;4.72;1.15;;;;;9.40;96881.00;;;;5072736;28;20041;-63
2024/01/04 01:40:30;;;;;;;7.03;1.60;;;;;9.30;96900.00;;;;5071548;28;20503;-63
2024/01/04 01:42:59;;;;;;;3.75;0.98;;;;;9.20;96894.00;;;;5073110;28;20528;-62
2024/01/04 01:45:25;;;;;;;1.77;0.90;;;;;9.20;96917.00;;;;5070973;28;20451;-62
2024/01/04 01:47:55;;;;;;;4.65;1.05;;;;;9.20;96900.00;;;;5071422;28;20071;-65
2024/01/04 01:50:23;;;;;;;7.55;1.10;;;;;9.20;96912.00;;;;5072730;28;20044;-63
2024/01/04 01:52:51;;;;;;;2.30;0.80;;;;;9.20;96922.00;;;;5072518;28;20109;-64
2024/01/04 01:55:20;;;;;;;5.03;1.23;;;;;9.20;96922.00;;;;5072131;28;20115;-63
2024/01/04 01:57:46;;;;;;;2.63;0.85;;;;;9.20;96931.00;;;;5071378;28;20055;-65
2024/01/04 02:00:14;;;;;;;4.18;1.00;;;;;9.20;96941.00;;;;5071676;28;20045;-63
2024/01/04 02:02:48;;;;;;;4.60;0.95;;;;;9.20;96940.00;;;;5072507;28;20040;-62
2024/01/04 02:05:16;;;;;;;3.80;0.90;;;;;9.10;96950.00;;;;5070677;28;20053;-62
2024/01/04 02:07:45;;;;;;;6.22;1.10;;;;;9.10;96959.00;;;;5071041;28;20086;-63
2024/01/04 02:10:13;;;;;;;2.80;1.10;;;;;9.10;96960.00;;;;5071295;28;20103;-62
2024/01/04 02:12:39;;;;;;;2.85;0.95;;;;;9.00;96970.00;;;;5071101;28;20052;-62
2024/01/04 02:15:07;;;;;;;3.83;1.13;;;;;9.00;96960.00;;;;5071806;28;20494;-62
2024/01/04 02:17:34;;;;;;;3.38;0.98;;;;;9.00;96967.00;;;;5072307;28;20398;-63
2024/01/04 02:20:02;;;;;;;2.72;0.82;;;;;9.00;96985.00;;;;5071008;28;20044;-62
2024/01/04 02:22:28;;;;;;;4.78;0.93;;;;;9.00;96984.00;;;;5070969;28;20052;-62
2024/01/04 02:24:55;;;;;;;3.72;0.90;;;;;9.00;96983.00;;;;5071606;28;20504;-62
2024/01/04 02:27:21;;;;;;;3.22;1.10;;;;;9.00;97000.00;;;;5072213;28;20095;-63
2024/01/04 02:29:48;;;;;;;2.85;0.70;;;;;9.00;96992.00;;;;5072173;28;20075;-62
2024/01/04 02:32:14;;;;;;;3.30;0.70;;;;;9.00;96989.00;;;;5070853;28;20048;-63
2024/01/04 02:34:41;;;;;;;4.50;0.80;;;;;9.00;96989.00;;;;5071619;28;20040;-62
2024/01/04 02:37:07;;;;;;;2.10;1.08;;;;;9.10;97014.00;;;;5072042;28;20068;-62
2024/01/04 02:39:34;;;;;;;2.88;0.70;;;;;9.10;97006.00;;;;5072099;28;20128;-63
2024/01/04 02:42:01;;;;;;;3.60;1.05;;;;;9.10;97018.00;;;;5072084;28;20511;-62
2024/01/04 02:44:28;;;;;;;1.40;0.82;;;;;9.10;97019.00;;;;5070283;28;20052;-63
2024/01/04 02:46:56;;;;;;;3.00;1.15;;;;;9.10;97024.00;;;;5072103;28;20119;-62
2024/01/04 02:49:23;;;;;;;2.17;0.80;;;;;9.10;97018.00;;;;5072001;28;20049;-63
2024/01/04 02:51:49;;;;;;;2.13;0.75;;;;;9.10;97027.00;;;;5070940;28;20084;-63
2024/01/04 02:54:16;;;;;;;2.50;0.77;;;;;9.10;97020.00;;;;5053872;28;20041;-63
2024/01/04 02:56:43;;;;;;;2.03;0.88;;;;;9.10;97035.00;;;;5071182;28;20421;-63
2024/01/04 02:59:09;;;;;;;3.50;0.95;;;;;9.20;97041.00;;;;5070772;28;20053;-62
2024/01/04 03:01:36;;;;;;;2.60;0.90;;;;;9.20;97028.00;;;;5072204;28;20067;-65
2024/01/04 03:04:03;;;;;;;3.47;0.93;;;;;9.20;97046.00;;;;5071707;28;20048;-63
2024/01/04 03:06:30;;;;;;;3.03;1.10;;;;;9.20;97046.00;;;;5070923;28;20389;-63
2024/01/04 03:08:57;;;;;;;4.45;1.10;;;;;9.30;97049.00;;;;5072988;28;20414;-63
2024/01/04 03:11:23;;;;;;;2.78;0.73;;;;;9.20;97053.00;;;;5070885;28;20079;-63
2024/01/04 03:13:50;;;;;;;2.22;1.10;;;;;9.20;97059.00;;;;5071414;28;20044;-63
2024/01/04 03:16:19;;;;;;;2.58;0.80;;;;;9.30;97056.00;;;;5072060;28;20064;-63
2024/01/04 03:18:45;;;;;;;3.03;1.00;;;;;9.20;97057.00;;;;5072063;28;20044;-63
2024/01/04 03:21:13;;;;;;;1.90;0.88;;;;;9.30;97065.00;;;;5071884;28;20064;-65
2024/01/04 03:23:40;;;;;;;3.63;0.90;;;;;9.30;97069.00;;;;5071087;28;20056;-63
2024/01/04 03:26:06;;;;;;;3.40;1.13;;;;;9.30;97075.00;;;;5071757;28;20045;-60
2024/01/04 03:28:33;;;;;;;4.53;1.02;;;;;9.30;97086.00;;;;5074563;28;20100;-64
2024/01/04 03:31:00;;;;;;;4.30;1.10;;;;;9.30;97082.00;;;;5078497;28;20072;-63
2024/01/04 03:33:26;;;;;;;3.95;1.00;;;;;9.30;97093.00;;;;5076795;28;20605;-63
2024/01/04 03:35:53;;;;;;;3.53;1.00;;;;;9.20;97095.00;;;;5081144;28;20060;-63
2024/01/04 03:38:20;;;;;;;3.03;1.42;;;;;9.20;97101.00;;;;5084331;28;20048;-63
2024/01/04 03:40:46;;;;;;;2.42;1.00;;;;;9.20;97105.00;;;;5085571;28;20075;-63
2024/01/04 03:43:13;;;;;;;3.75;1.10;;;;;9.20;97107.00;;;;5081175;28;20119;-62
2024/01/04 03:45:39;;;;;;;5.57;0.80;;;;;9.20;97103.00;;;;5084492;28;20079;-64
2024/01/04 03:48:06;;;;;;;3.50;1.10;;;;;9.20;97100.00;;;;5082269;28;20052;-63
2024/01/04 03:50:33;;;;;;;4.28;1.23;;;;;9.20;97102.00;;;;5085186;28;20106;-62
2024/01/04 03:52:59;;;;;;;2.50;0.88;;;;;9.20;97106.00;;;;5080334;28;20123;-64
2024/01/04 03:55:26;;;;;;;6.20;1.58;;;;;9.20;97117.00;;;;5078692;28;20139;-63
2024/01/04 03:57:52;;;;;;;5.78;1.17;;;;;9.20;97117.00;;;;5078972;28;20127;-63
2024/01/04 04:00:19;;;;;;;5.00;1.20;;;;;9.20;97119.00;;;;5076337;28;20044;-63
2024/01/04 04:02:46;;;;;;;4.15;1.25;;;;;9.20;97116.00;;;;5074909;28;20544;-65
2024/01/04 04:05:13;;;;;;;2.60;1.10;;;;;9.20;97112.00;;;;5076277;28;20123;-64
2024/01/04 04:07:40;;;;;;;3.88;1.02;;;;;9.20;97127.00;;;;5076703;28;20162;-63
2024/01/04 04:10:08;;;;;;;2.63;0.95;;;;;9.20;97118.00;;;;5076492;28;20052;-63
2024/01/04 04:12:35;;;;;;;2.35;1.20;;;;;9.20;97124.00;;;;5075584;28;20401;-61
2024/01/04 04:15:01;;;;;;;2.78;1.00;;;;;9.20;97125.00;;;;5074721;28;20051;-60
2024/01/04 04:17:33;;;;;;;2.08;0.77;;;;;9.20;97131.00;;;;5077887;28;20044;-61
2024/01/04 04:20:00;;;;;;;4.85;1.00;;;;;9.20;97135.00;;;;5078981;28;20437;-61
2024/01/04 04:22:27;;;;;;;2.92;0.80;;;;;9.20;97138.00;;;;5074666;28;20079;-62
2024/01/04 04:24:53;;;;;;;4.18;0.93;;;;;9.30;97138.00;;;;5072500;28;20135;-62
2024/01/04 04:27:20;;;;;;;3.38;0.80;;;;;9.30;97144.00;;;;5073254;28;20052;-62
2024/01/04 04:29:46;;;;;;;1.52;0.70;;;;;9.20;97145.00;;;;5074428;28;20444;-64
2024/01/04 04:32:13;;;;;;;3.67;1.25;;;;;9.10;97143.00;;;;5074292;28;20041;-61
2024/01/04 04:34:39;;;;;;;3.00;0.70;;;;;9.20;97144.00;;;;5073606;28;20460;-61
2024/01/04 04:37:06;;;;;;;1.88;0.70;;;;;9.20;97156.00;;;;5074107;28;20052;-61
2024/01/04 04:39:33;;;;;;;2.28;0.80;;;;;9.20;97152.00;;;;5072961;28;20068;-64
2024/01/04 04:41:59;;;;;;;1.20;0.68;;;;;9.20;97162.00;;;;5074061;28;20040;-61
2024/01/04 04:44:26;;;;;;;2.20;0.90;;;;;9.20;97167.00;;;;5073664;28;20127;-60
2024/01/04 04:46:53;;;;;;;5.55;1.00;;;;;9.20;97157.00;;;;5072807;28;20087;-63
2024/01/04 04:49:20;;;;;;;1.80;1.23;;;;;9.20;97171.00;;;;5072627;28;20044;-61
2024/01/04 04:51:48;;;;;;;3.45;0.98;;;;;9.20;97168.00;;;;5073927;28;20053;-60
2024/01/04 04:54:16;;;;;;;3.00;1.02;;;;;9.20;97163.00;;;;5073348;28;20493;-61
2024/01/04 04:56:46;;;;;;;3.78;1.08;;;;;9.30;97173.00;;;;5073890;28;20075;-61
2024/01/04 04:59:14;;;;;;;4.53;1.00;;;;;9.30;97169.00;;;;5073847;28;20119;-61
2024/01/04 05:01:43;;;;;;;4.72;1.15;;;;;9.20;97175.00;;;;5073810;28;20072;-61
2024/01/04 05:04:10;;;;;;;4.18;0.90;;;;;9.20;97183.00;;;;5072921;28;20036;-60
2024/01/04 05:06:36;;;;;;;2.03;0.90;;;;;9.10;97184.00;;;;5073656;28;20044;-59
2024/01/04 05:09:03;;;;;;;4.05;1.10;;;;;8.90;97188.00;;;;5074669;28;20444;-61
2024/01/04 05:11:30;;;;;;;4.68;1.00;;;;;8.90;97200.00;;;;5077185;28;20068;-63
2024/01/04 05:13:56;;;;;;;3.92;1.27;;;;;8.80;97197.00;;;;5075197;28;20051;-61
2024/01/04 05:16:23;;;;;;;6.57;1.20;;;;;8.80;97201.00;;;;5073457;28;20055;-63
2024/01/04 05:18:50;;;;;;;2.60;1.08;;;;;8.90;97201.00;;;;5073330;28;20102;-61
2024/01/04 05:21:16;;;;;;;3.67;0.95;;;;;8.90;97209.00;;;;5074226;28;20044;-62
2024/01/04 05:23:43;;;;;;;4.78;1.10;;;;;8.90;97208.00;;;;5072796;28;20055;-61
2024/01/04 05:26:21;;;;;;;2.35;0.85;;;;;9.00;97206.00;;;;5073520;28;20044;-60
2024/01/04 05:28:48;;;;;;;4.32;1.23;;;;;9.00;97202.00;;;;5073232;28;20072;-62
2024/01/04 05:31:17;;;;;;;3.60;1.05;;;;;9.00;97206.00;;;;5073088;28;20135;-62
2024/01/04 05:33:48;;;;;;;4.05;1.48;;;;;9.00;97201.00;;;;5072591;28;20048;-63
2024/01/04 05:36:14;;;;;;;7.35;1.88;;;;;9.00;97210.00;;;;5073148;28;20448;-64
2024/01/04 05:38:41;;;;;;;4.85;1.50;;;;;9.00;97216.00;;;;5073254;28;20053;-62
2024/01/04 05:41:08;;;;;;;3.45;1.00;;;;;9.00;97225.00;;;;5073547;28;20041;-61
2024/01/04 05:43:35;;;;;;;3.47;1.33;;;;;9.00;97212.00;;;;5073396;28;20082;-64
2024/01/04 05:46:04;;;;;;;6.95;1.48;;;;;9.00;97231.00;;;;5074679;28;20048;-62
2024/01/04 05:48:32;;;;;;;4.32;1.00;;;;;9.00;97234.00;;;;5074704;28;20057;-62
2024/01/04 05:50:59;;;;;;;2.85;1.05;;;;;9.00;97232.00;;;;5074206;28;20055;-61
2024/01/04 05:53:26;;;;;;;8.38;1.70;;;;;9.00;97235.00;;;;5074010;28;20099;-62
2024/01/04 05:55:53;;;;;;;4.10;1.20;;;;;9.00;97237.00;;;;5071907;28;20076;-60
2024/01/04 05:58:19;;;;;;;5.22;1.70;;;;;9.00;97244.00;;;;5072563;28;20486;-62
2024/01/04 06:00:47;;;;;;;81.38;41.40;;;;;8.90;97237.00;;;;5072910;28;20119;-61
2024/01/04 06:03:14;;;;;;;3.15;1.30;;;;;8.90;97238.00;;;;5072644;28;20041;-62
2024/01/04 06:05:40;;;;;;;4.28;1.45;;;;;8.90;97239.00;;;;5072161;28;20049;-61
2024/01/04 06:08:07;;;;;;;5.07;1.13;;;;;8.90;97240.00;;;;5073096;28;20041;-64
2024/01/04 06:10:34;;;;;;;7.72;1.52;;;;;8.90;97249.00;;;;5054891;28;20095;-61
2024/01/04 06:13:02;;;;;;;4.85;1.40;;;;;8.90;97248.00;;;;5072701;28;20064;-66
2024/01/04 06:15:28;;;;;;;5.55;1.80;;;;;8.90;97261.00;;;;5071851;28;20055;-63
2024/01/04 06:17:55;;;;;;;6.65;1.25;;;;;8.90;97254.00;;;;5071824;28;20048;-63
2024/01/04 06:20:22;;;;;;;2.65;1.08;;;;;9.00;97239.00;;;;5072259;28;20047;-63
2024/01/04 06:22:51;;;;;;;3.10;0.98;;;;;8.90;97252.00;;;;5072245;28;20041;-63
2024/01/04 06:25:18;;;;;;;4.82;1.30;;;;;8.90;97258.00;;;;5070912;28;20383;-65
2024/01/04 06:27:45;;;;;;;3.33;0.80;;;;;8.90;97256.00;;;;5072592;28;20056;-63
2024/01/04 06:30:11;;;;;;;2.42;0.90;;;;;8.90;97262.00;;;;5073832;28;20044;-63
2024/01/04 06:32:38;;;;;;;5.38;1.42;;;;;8.90;97264.00;;;;5070788;28;20051;-63
2024/01/04 06:35:05;;;;;;;5.60;1.67;;;;;8.90;97278.00;;;;5071491;28;20036;-63
2024/01/04 06:37:31;;;;;;;5.75;1.48;;;;;8.90;97271.00;;;;5070740;28;20048;-63
2024/01/04 06:39:58;;;;;;;3.80;1.23;;;;;8.90;97285.00;;;;5071997;28;20040;-66
2024/01/04 06:42:24;;;;;;;5.13;1.10;;;;;8.90;97279.00;;;;5070763;28;20044;-64
2024/01/04 06:44:51;;;;;;;5.68;1.25;;;;;8.90;97274.00;;;;5070246;28;20447;-63
2024/01/04 06:47:18;;;;;;;2.75;0.95;;;;;8.90;97277.00;;;;5070824;28;20048;-63
2024/01/04 06:49:44;;;;;;;6.50;1.20;;;;;8.90;97272.00;;;;5071906;28;20075;-64
2024/01/04 06:52:11;;;;;;;6.13;1.20;;;;;8.90;97286.00;;;;5071889;28;20037;-65
2024/01/04 06:54:38;;;;;;;5.53;1.65;;;;;8.90;97297.00;;;;5071051;28;20036;-66
2024/01/04 06:57:06;;;;;;;3.88;0.90;;;;;8.90;97279.00;;;;5071816;28;20068;-66
2024/01/04 06:59:34;;;;;;;7.10;1.27;;;;;8.90;97289.00;;;;5071906;28;20045;-65
2024/01/04 07:02:03;;;;;;;3.72;1.17;;;;;9.00;97296.00;;;;5071609;28;20112;-65
2024/01/04 07:04:30;;;;;;;3.38;1.50;;;;;9.00;97292.00;;;;5071190;28;20611;-66
2024/01/04 07:06:57;;;;;;;2.40;1.30;;;;;9.00;97303.00;;;;5070467;28;20045;-65
2024/01/04 07:09:24;;;;;;;3.03;1.17;;;;;9.00;97299.00;;;;5071989;28;20099;-65
2024/01/04 07:11:51;;;;;;;7.07;1.42;;;;;9.00;97313.00;;;;5070403;28;20076;-66
2024/01/04 07:14:17;;;;;;;4.05;1.30;;;;;9.00;97314.00;;;;5069834;28;20497;-65
2024/01/04 07:16:45;;;;;;;5.47;1.60;;;;;9.00;97319.00;;;;5070309;28;20573;-66
2024/01/04 07:19:12;;;;;;;8.55;1.60;;;;;9.00;97331.00;;;;5071548;28;20454;-65
2024/01/04 07:21:41;;;;;;;8.38;1.67;;;;;8.90;97321.00;;;;5071669;28;20412;-65
2024/01/04 07:24:07;;;;;;;11.98;1.73;;;;;8.90;97336.00;;;;5070921;28;20044;-63
2024/01/04 07:26:34;;;;;;;9.65;2.47;;;;;8.90;97340.00;;;;5070666;28;20056;-63
2024/01/04 07:29:01;;;;;;;8.60;1.83;;;;;9.00;97338.00;;;;5071563;28;20045;-62
2024/01/04 07:31:28;;;;;;;6.88;1.55;;;;;9.00;97351.00;;;;5071845;28;20086;-64
2024/01/04 07:33:54;;;;;;;6.30;1.90;;;;;9.00;97348.00;;;;5070148;28;20524;-65
2024/01/04 07:36:21;;;;;;;10.77;2.20;;;;;9.00;97347.00;;;;5074235;28;20555;-61
2024/01/04 07:38:48;;;;;;;8.80;2.53;;;;;9.00;97358.00;;;;5075929;28;20051;-60
2024/01/04 07:41:15;;;;;;;5.47;1.92;;;;;9.00;97365.00;;;;5075608;28;20051;-61
2024/01/04 07:43:42;;;;;;;6.35;1.58;;;;;8.90;97373.00;;;;5074779;28;20040;-60
2024/01/04 07:46:08;;;;;;;9.30;2.30;;;;;8.90;97374.00;;;;5073842;28;20562;-63
2024/01/04 07:48:35;;;;;;;15.68;2.42;;;;;8.80;97373.00;;;;5075234;28;20063;-61
2024/01/04 07:51:02;;;;;;;13.05;3.08;;;;;8.80;97386.00;;;;5075090;28;20040;-64
2024/01/04 07:53:28;;;;;;;10.45;2.42;;;;;8.80;97390.00;;;;5074526;28;20044;-63
2024/01/04 07:55:55;;;;;;;9.63;2.17;;;;;8.70;97391.00;;;;5075047;28;20130;-64
2024/01/04 07:58:21;;;;;;;11.70;2.53;;;;;8.70;97384.00;;;;5073747;28;20464;-64
2024/01/04 08:00:48;;;;;;;8.60;2.10;;;;;8.70;97395.00;;;;5075417;28;20041;-64
2024/01/04 08:03:15;;;;;;;12.10;2.58;;;;;8.70;97399.00;;;;5074910;28;20154;-64
2024/01/04 08:05:41;;;;;;;10.95;3.08;;;;;8.80;97391.00;;;;5073185;28;20117;-64
2024/01/04 08:08:08;;;;;;;12.70;2.45;;;;;8.80;97400.00;;;;5074852;28;20076;-64
2024/01/04 08:10:35;;;;;;;8.35;2.42;;;;;8.80;97405.00;;;;5057000;28;20139;-64
2024/01/04 08:13:02;;;;;;;7.50;2.25;;;;;8.80;97413.00;;;;5074810;28;20094;-64
2024/01/04 08:15:33;;;;;;;13.00;2.33;;;;;8.90;97415.00;;;;5073077;28;20075;-62
2024/01/04 08:18:03;;;;;;;11.52;2.58;;;;;8.90;97407.00;;;;5073294;28;20110;-64
2024/01/04 08:20:33;;;;;;;12.68;3.00;;;;;8.90;97423.00;;;;5074854;28;20051;-65
2024/01/04 08:22:59;;;;;;;13.98;2.55;;;;;8.90;97411.00;;;;5073284;28;20052;-64
2024/01/04 08:25:27;;;;;;;9.65;2.55;;;;;9.00;97421.00;;;;5073958;28;20071;-64
2024/01/04 08:27:54;;;;;;;13.30;2.95;;;;;9.00;97417.00;;;;5073452;28;20072;-63
2024/01/04 08:30:21;;;;;;;7.50;2.13;;;;;9.00;97422.00;;;;5073222;28;20080;-66
2024/01/04 08:32:48;;;;;;;13.68;2.60;;;;;9.00;97427.00;;;;5074604;28;20036;-66
2024/01/04 08:35:17;;;;;;;8.57;2.17;;;;;9.00;97426.00;;;;5072661;28;20503;-66
2024/01/04 08:37:45;;;;;;;9.93;2.50;;;;;9.00;97423.00;;;;5073061;28;20447;-64
2024/01/04 08:40:13;;;;;;;11.82;2.63;;;;;9.10;97446.00;;;;5074371;28;20045;-65
2024/01/04 08:42:39;;;;;;;10.93;2.17;;;;;9.10;97451.00;;;;5074457;28;20106;-65
2024/01/04 08:45:07;;;;;;;12.77;2.55;;;;;9.10;97451.00;;;;5073699;28;20044;-65
2024/01/04 08:47:34;;;;;;;8.98;2.58;;;;;9.10;97440.00;;;;5073375;28;20066;-63
2024/01/04 08:50:01;;;;;;;13.57;2.72;;;;;9.00;97455.00;;;;5056308;28;20052;-65
2024/01/04 08:52:29;;;;;;;10.25;2.83;;;;;9.10;97472.00;;;;5073145;28;20090;-64
2024/01/04 08:54:56;;;;;;;13.88;3.35;;;;;9.10;97462.00;;;;5073512;28;20490;-65
2024/01/04 08:57:23;;;;;;;12.23;2.90;;;;;9.00;97465.00;;;;5074084;28;20101;-64
2024/01/04 08:59:50;;;;;;;10.75;2.53;;;;;9.00;97473.00;;;;5074219;28;20051;-65
2024/01/04 09:02:17;;;;;;;13.38;2.33;;;;;9.00;97480.00;;;;5074263;28;20404;-64
2024/01/04 09:04:44;;;;;;;12.20;2.97;;;;;9.00;97491.00;;;;5073595;28;20048;-65
2024/01/04 09:07:12;;;;;;;13.13;2.70;;;;;9.00;97489.00;;;;5073835;28;20052;-65
2024/01/04 09:09:40;;;;;;;12.52;3.30;;;;;9.10;97485.00;;;;5073920;28;20063;-65
2024/01/04 09:12:07;;;;;;;9.98;2.42;;;;;9.00;97488.00;;;;5072654;28;20068;-64
2024/01/04 09:14:33;;;;;;;7.45;2.53;;;;;9.00;97511.00;;;;5055795;28;20046;-65
2024/01/04 09:17:00;;;;;;;10.60;3.13;;;;;9.00;97502.00;;;;5074347;28;20587;-65
2024/01/04 09:19:27;;;;;;;16.40;3.50;;;;;9.00;97497.00;;;;5056292;28;20052;-64
2024/01/04 09:21:55;;;;;;;11.13;3.22;;;;;9.10;97505.00;;;;5073877;28;20489;-65
2024/01/04 09:24:23;;;;;;;9.52;3.10;;;;;9.10;97518.00;;;;5073294;28;20047;-65
2024/01/04 09:26:50;;;;;;;19.77;3.30;;;;;9.10;97512.00;;;;5074010;28;20048;-65
2024/01/04 09:29:17;;;;;;;9.23;2.83;;;;;9.10;97520.00;;;;5073936;28;20048;-65
2024/01/04 09:31:44;;;;;;;19.30;3.55;;;;;9.10;97528.00;;;;5074021;28;20050;-65
2024/01/04 09:34:10;;;;;;;11.82;2.65;;;;;9.20;97539.00;;;;5066305;28;20063;-65
2024/01/04 09:36:37;;;;;;;9.45;3.67;;;;;9.30;97532.00;;;;5064468;28;20044;-63
2024/01/04 09:39:04;;;;;;;14.32;3.10;;;;;9.40;97546.00;;;;5057604;28;20144;-64
2024/01/04 09:41:32;;;;;;;8.93;3.10;;;;;9.40;97550.00;;;;5060282;28;20098;-63
2024/01/04 09:44:06;;;;;;;15.30;3.03;;;;;9.50;97541.00;;;;5063734;28;20143;-64
2024/01/04 09:46:37;;;;;;;10.65;2.80;;;;;9.60;97560.00;;;;5071354;28;20040;-62
2024/01/04 09:49:05;;;;;;;15.55;3.03;;;;;9.70;97551.00;;;;5066973;28;20063;-65
2024/01/04 09:51:38;;;;;;;8.32;2.45;;;;;9.80;97567.00;;;;5064764;28;20060;-64
2024/01/04 09:54:08;;;;;;;10.20;2.80;;;;;9.90;97569.00;;;;5072879;28;20109;-62
2024/01/04 09:56:51;;;;;;;13.98;2.72;;;;;9.80;97566.00;;;;5071405;28;20691;-63
2024/01/04 09:59:18;;;;;;;12.83;2.30;;;;;9.70;97571.00;;;;5072607;28;20440;-64
2024/01/04 10:01:45;;;;;;;9.90;2.47;;;;;9.70;97572.00;;;;5072613;28;20577;-63
2024/01/04 10:04:14;;;;;;;15.65;3.58;;;;;9.70;97573.00;;;;5071847;28;20067;-65
2024/01/04 10:06:45;;;;;;;11.18;2.75;;;;;9.80;97590.00;;;;5072459;28;20060;-62
2024/01/04 10:09:15;;;;;;;7.85;2.42;;;;;10.00;97589.00;;;;5072421;28;20135;-64
2024/01/04 10:11:57;;;;;;;10.15;2.40;;;;;10.10;97578.00;;;;5072518;28;20052;-63
2024/01/04 10:14:25;;;;;;;8.18;2.47;;;;;10.20;97579.00;;;;5070567;28;20037;-64
2024/01/04 10:16:53;;;;;;;11.57;2.40;;;;;10.30;97585.00;;;;5072423;28;20076;-63
2024/01/04 10:19:19;;;;;;;12.98;3.28;;;;;10.40;97585.00;;;;5072301;28;20052;-61
2024/01/04 10:21:47;;;;;;;12.40;2.75;;;;;10.40;97597.00;;;;5072435;28;20489;-66
2024/01/04 10:24:20;;;;;;;11.00;2.80;;;;;10.40;97595.00;;;;5071532;28;20046;-63
2024/01/04 10:26:57;;;;;;;5.90;2.50;;;;;10.40;97601.00;;;;5072316;28;20056;-65
2024/01/04 10:29:29;;;;;;;10.27;2.00;;;;;10.40;97600.00;;;;5072526;28;20044;-62
2024/01/04 10:32:08;;;;;;;14.15;2.50;;;;;10.30;97591.00;;;;5072488;28;20397;-63
2024/01/04 10:34:37;;;;;;;12.50;2.50;;;;;10.20;97598.00;;;;5071618;28;20598;-64
2024/01/04 10:37:12;;;;;;;12.05;2.60;;;;;10.10;97589.00;;;;5072062;28;20045;-63
2024/01/04 10:39:45;;;;;;;13.10;3.08;;;;;10.10;97595.00;;;;5072359;28;20457;-63
2024/01/04 10:42:12;;;;;;;10.10;3.35;;;;;10.10;97598.00;;;;5072355;28;20482;-63
2024/01/04 10:44:39;;;;;;;8.52;2.17;;;;;10.20;97591.00;;;;5071624;28;20397;-64
2024/01/04 10:47:09;;;;;;;6.38;2.17;;;;;10.40;97598.00;;;;5072041;28;20469;-63
2024/01/04 10:49:40;;;;;;;8.90;2.75;;;;;10.50;97608.00;;;;5072308;28;20055;-63
2024/01/04 10:52:13;;;;;;;12.70;2.42;;;;;10.40;97601.00;;;;5072126;28;20098;-63
2024/01/04 10:54:41;;;;;;;8.50;2.67;;;;;10.40;97608.00;;;;5071436;28;20078;-65
2024/01/04 10:57:09;;;;;;;11.95;3.35;;;;;10.50;97601.00;;;;5072134;28;20040;-63
2024/01/04 10:59:36;;;;;;;11.30;2.28;;;;;10.30;97610.00;;;;5072132;28;20115;-64
2024/01/04 11:02:03;;;;;;;40.88;21.75;;;;;10.20;97604.00;;;;5072267;28;20047;-63
2024/01/04 11:04:30;;;;;;;7.80;2.40;;;;;10.20;97592.00;;;;5071280;28;20047;-63
2024/01/04 11:06:58;;;;;;;9.23;3.40;;;;;10.10;97604.00;;;;5072128;28;20472;-62
2024/01/04 11:09:25;;;;;;;11.50;2.72;;;;;10.00;97608.00;;;;5070784;28;20044;-63
2024/01/04 11:11:53;;;;;;;12.32;2.45;;;;;10.00;97610.00;;;;5074387;28;20083;-64
2024/01/04 11:14:24;;;;;;;8.95;2.33;;;;;10.10;97607.00;;;;5075482;28;20036;-64
2024/01/04 11:17:31;;;;;;;10.05;2.50;;;;;10.20;97615.00;;;;5076330;28;20128;-62
2024/01/04 11:20:15;;;;;;;8.15;2.60;;;;;10.10;97603.00;;;;5075887;28;20037;-64
2024/01/04 11:23:26;;;;;;;9.43;3.20;;;;;10.10;97610.00;;;;5075821;28;20123;-63
2024/01/04 11:26:01;;;;;;;9.77;2.50;;;;;10.10;97609.00;;;;5016693;28;20514;-63
2024/01/04 11:28:27;;;;;;;7.68;2.22;;;;;10.10;97614.00;;;;5016658;28;20147;-63
2024/01/04 11:31:06;;;;;;;10.00;2.25;;;;;10.00;97610.00;;;;5060988;28;20048;-63
2024/01/04 11:33:38;;;;;;;10.95;2.65;;;;;10.10;97611.00;;;;5074740;28;20041;-64
2024/01/04 11:36:05;;;;;;;11.90;3.45;;;;;10.10;97616.00;;;;5075524;28;20139;-64
2024/01/04 11:38:35;;;;;;;7.68;2.78;;;;;10.10;97617.00;;;;5075260;28;20047;-63
2024/01/04 11:41:02;;;;;;;10.85;2.22;;;;;10.10;97615.00;;;;5075397;28;20597;-63
2024/01/04 11:43:40;;;;;;;7.43;2.47;;;;;10.20;97622.00;;;;5074777;28;20489;-63
2024/01/04 11:46:26;;;;;;;12.82;2.72;;;;;10.30;97620.00;;;;5075137;28;20124;-63
2024/01/04 11:48:59;;;;;;;10.35;2.80;;;;;10.30;97618.00;;;;5075015;28;20076;-64
2024/01/04 11:51:38;;;;;;;10.70;2.25;;;;;10.20;97621.00;;;;5075352;28;20493;-65
2024/01/04 11:54:06;;;;;;;13.73;3.65;;;;;10.20;97612.00;;;;5074419;28;20040;-64
2024/01/04 11:56:33;;;;;;;13.52;3.10;;;;;10.20;97605.00;;;;5073672;28;20049;-65
2024/01/04 11:59:11;;;;;;;14.50;3.55;;;;;10.20;97604.00;;;;5073693;28;20048;-64
2024/01/04 12:01:42;;;;;;;5.90;2.17;;;;;10.30;97614.00;;;;5074939;28;20045;-62
2024/01/04 12:04:16;;;;;;;8.88;2.85;;;;;10.30;97616.00;;;;5074327;28;20516;-62
2024/01/04 12:06:44;;;;;;;13.10;2.72;;;;;10.50;97620.00;;;;5073673;28;20044;-62
2024/01/04 12:09:18;;;;;;;12.50;2.50;;;;;10.60;97624.00;;;;5074740;28;20098;-62
2024/01/04 12:11:55;;;;;;;12.27;3.08;;;;;10.50;97620.00;;;;5074826;28;20052;-62
2024/01/04 12:14:24;;;;;;;8.13;2.35;;;;;10.50;97622.00;;;;5074142;28;20041;-62
2024/01/04 12:16:51;;;;;;;10.35;3.53;;;;;10.40;97624.00;;;;5074757;28;20123;-62
2024/01/04 12:19:17;;;;;;;9.40;2.95;;;;;10.30;97619.00;;;;5073320;28;20052;-62
2024/01/04 12:21:45;;;;;;;14.25;5.40;;;;;10.30;97606.00;;;;5074279;28;20044;-63
2024/01/04 12:24:13;;;;;;;43.08;17.35;;;;;10.30;97615.00;;;;5072796;28;20059;-62
2024/01/04 12:26:40;;;;;;;13.88;4.57;;;;;10.30;97608.00;;;;5074686;28;20051;-65